sensor_id;sensor_type;location;lat;lon;timestamp;P1;durP1;ratioP1;P2;durP2;ratioP2
9374;SDS011;4727;51.202;6.344;2022-07-23T00:00:59;8.17;;;7.43;;
9374;SDS011;4727;51.202;6.344;2022-07-23T00:03:25;8.53;;;7.60;;
9374;SDS011;4727;51.202;6.344;2022-07-23T00:05:51;11.13;;;8.33;;
9374;SDS011;4727;51.202;6.344;2022-07-23T00:08:17;9.13;;;8.20;;
9374;SDS011;4727;51.202;6.344;2022-07-23T00:10:43;8.50;;;7.67;;
9374;SDS011;4727;51.202;6.344;2022-07-23T00:13:08;9.07;;;8.17;;
9374;SDS011;4727;51.202;6.344;2022-07-23T00:15:34;8.30;;;7.60;;
9374;SDS011;4727;51.202;6.344;2022-07-23T00:18:00;9.13;;;8.27;;
9374;SDS011;4727;51.202;6.344;2022-07-23T00:20:25;8.57;;;7.77;;
9374;SDS011;4727;51.202;6.344;2022-07-23T00:22:53;9.13;;;8.27;;
9374;SDS011;4727;51.202;6.344;2022-07-23T00:25:20;9.17;;;8.23;;
9374;SDS011;4727;51.202;6.344;2022-07-23T00:27:46;9.87;;;8.73;;
9374;SDS011;4727;51.202;6.344;2022-07-23T00:30:12;8.60;;;7.90;;
9374;SDS011;4727;51.202;6.344;2022-07-23T00:33:11;9.20;;;8.30;;
9374;SDS011;4727;51.202;6.344;2022-07-23T00:35:32;10.63;;;9.03;;
9374;SDS011;4727;51.202;6.344;2022-07-23T00:38:01;10.13;;;9.23;;
9374;SDS011;4727;51.202;6.344;2022-07-23T00:40:27;10.03;;;8.73;;
9374;SDS011;4727;51.202;6.344;2022-07-23T00:42:54;10.20;;;9.10;;
9374;SDS011;4727;51.202;6.344;2022-07-23T00:45:19;10.03;;;9.03;;
9374;SDS011;4727;51.202;6.344;2022-07-23T00:47:45;12.80;;;9.53;;
9374;SDS011;4727;51.202;6.344;2022-07-23T00:50:11;10.67;;;9.67;;
9374;SDS011;4727;51.202;6.344;2022-07-23T00:52:38;10.53;;;9.53;;
9374;SDS011;4727;51.202;6.344;2022-07-23T00:55:04;10.67;;;9.27;;
9374;SDS011;4727;51.202;6.344;2022-07-23T00:57:32;10.67;;;9.67;;
9374;SDS011;4727;51.202;6.344;2022-07-23T00:59:58;10.13;;;9.23;;
9374;SDS011;4727;51.202;6.344;2022-07-23T01:02:24;11.03;;;9.97;;
9374;SDS011;4727;51.202;6.344;2022-07-23T01:04:50;11.53;;;10.40;;
9374;SDS011;4727;51.202;6.344;2022-07-23T01:07:16;11.10;;;10.10;;
9374;SDS011;4727;51.202;6.344;2022-07-23T01:09:43;11.60;;;10.43;;
9374;SDS011;4727;51.202;6.344;2022-07-23T01:12:10;12.83;;;10.93;;
9374;SDS011;4727;51.202;6.344;2022-07-23T01:14:35;11.47;;;10.47;;
9374;SDS011;4727;51.202;6.344;2022-07-23T01:17:01;11.37;;;10.27;;
9374;SDS011;4727;51.202;6.344;2022-07-23T01:19:27;11.23;;;10.30;;
9374;SDS011;4727;51.202;6.344;2022-07-23T01:21:53;11.80;;;10.60;;
9374;SDS011;4727;51.202;6.344;2022-07-23T01:24:20;11.10;;;10.00;;
9374;SDS011;4727;51.202;6.344;2022-07-23T01:26:46;11.33;;;10.30;;
9374;SDS011;4727;51.202;6.344;2022-07-23T01:29:13;10.83;;;9.73;;
9374;SDS011;4727;51.202;6.344;2022-07-23T01:31:39;11.13;;;9.97;;
9374;SDS011;4727;51.202;6.344;2022-07-23T01:34:05;11.30;;;10.10;;
9374;SDS011;4727;51.202;6.344;2022-07-23T01:36:32;11.70;;;10.60;;
9374;SDS011;4727;51.202;6.344;2022-07-23T01:38:58;11.00;;;9.97;;
9374;SDS011;4727;51.202;6.344;2022-07-23T01:41:24;11.40;;;10.40;;
9374;SDS011;4727;51.202;6.344;2022-07-23T01:43:49;11.53;;;10.50;;
9374;SDS011;4727;51.202;6.344;2022-07-23T01:46:15;12.07;;;10.87;;
9374;SDS011;4727;51.202;6.344;2022-07-23T01:48:41;11.63;;;10.53;;
9374;SDS011;4727;51.202;6.344;2022-07-23T01:51:07;11.53;;;10.13;;
9374;SDS011;4727;51.202;6.344;2022-07-23T01:53:32;11.43;;;10.43;;
9374;SDS011;4727;51.202;6.344;2022-07-23T01:55:58;11.70;;;10.63;;
9374;SDS011;4727;51.202;6.344;2022-07-23T01:58:25;12.30;;;11.20;;
9374;SDS011;4727;51.202;6.344;2022-07-23T02:00:51;14.00;;;11.37;;
9374;SDS011;4727;51.202;6.344;2022-07-23T02:03:17;11.93;;;10.83;;
9374;SDS011;4727;51.202;6.344;2022-07-23T02:05:43;11.50;;;10.40;;
9374;SDS011;4727;51.202;6.344;2022-07-23T02:08:08;12.37;;;11.10;;
9374;SDS011;4727;51.202;6.344;2022-07-23T02:10:34;12.63;;;11.40;;
9374;SDS011;4727;51.202;6.344;2022-07-23T02:12:59;12.00;;;11.00;;
9374;SDS011;4727;51.202;6.344;2022-07-23T02:15:25;12.70;;;11.50;;
9374;SDS011;4727;51.202;6.344;2022-07-23T02:17:51;11.27;;;10.27;;
9374;SDS011;4727;51.202;6.344;2022-07-23T02:20:17;13.33;;;11.20;;
9374;SDS011;4727;51.202;6.344;2022-07-23T02:22:42;12.33;;;11.13;;
9374;SDS011;4727;51.202;6.344;2022-07-23T02:25:08;12.37;;;11.10;;
9374;SDS011;4727;51.202;6.344;2022-07-23T02:27:34;11.80;;;10.70;;
9374;SDS011;4727;51.202;6.344;2022-07-23T02:30:00;11.47;;;10.53;;
9374;SDS011;4727;51.202;6.344;2022-07-23T02:32:26;13.30;;;11.07;;
9374;SDS011;4727;51.202;6.344;2022-07-23T02:34:52;11.60;;;10.50;;
9374;SDS011;4727;51.202;6.344;2022-07-23T02:37:17;12.43;;;11.33;;
9374;SDS011;4727;51.202;6.344;2022-07-23T02:39:43;12.63;;;11.43;;
9374;SDS011;4727;51.202;6.344;2022-07-23T02:42:09;12.13;;;11.03;;
9374;SDS011;4727;51.202;6.344;2022-07-23T02:44:34;13.10;;;11.80;;
9374;SDS011;4727;51.202;6.344;2022-07-23T02:47:00;11.90;;;10.73;;
9374;SDS011;4727;51.202;6.344;2022-07-23T02:49:25;12.43;;;11.23;;
9374;SDS011;4727;51.202;6.344;2022-07-23T02:51:51;11.60;;;10.60;;
9374;SDS011;4727;51.202;6.344;2022-07-23T02:54:17;12.67;;;11.57;;
9374;SDS011;4727;51.202;6.344;2022-07-23T02:56:43;12.50;;;11.40;;
9374;SDS011;4727;51.202;6.344;2022-07-23T02:59:08;12.30;;;11.10;;
9374;SDS011;4727;51.202;6.344;2022-07-23T03:01:34;13.03;;;11.77;;
9374;SDS011;4727;51.202;6.344;2022-07-23T03:04:00;12.47;;;11.27;;
9374;SDS011;4727;51.202;6.344;2022-07-23T03:06:26;11.80;;;10.67;;
9374;SDS011;4727;51.202;6.344;2022-07-23T03:08:51;11.97;;;10.87;;
9374;SDS011;4727;51.202;6.344;2022-07-23T03:11:17;12.03;;;10.90;;
9374;SDS011;4727;51.202;6.344;2022-07-23T03:13:42;14.40;;;11.77;;
9374;SDS011;4727;51.202;6.344;2022-07-23T03:16:08;13.03;;;10.47;;
9374;SDS011;4727;51.202;6.344;2022-07-23T03:18:34;12.10;;;10.67;;
9374;SDS011;4727;51.202;6.344;2022-07-23T03:21:00;11.33;;;10.40;;
9374;SDS011;4727;51.202;6.344;2022-07-23T03:23:25;11.73;;;10.60;;
9374;SDS011;4727;51.202;6.344;2022-07-23T03:25:51;12.23;;;11.07;;
9374;SDS011;4727;51.202;6.344;2022-07-23T03:28:17;11.60;;;10.53;;
9374;SDS011;4727;51.202;6.344;2022-07-23T03:30:43;12.20;;;11.10;;
9374;SDS011;4727;51.202;6.344;2022-07-23T03:33:14;12.13;;;11.13;;
9374;SDS011;4727;51.202;6.344;2022-07-23T03:35:43;12.80;;;11.53;;
9374;SDS011;4727;51.202;6.344;2022-07-23T03:38:10;12.53;;;11.33;;
9374;SDS011;4727;51.202;6.344;2022-07-23T03:40:35;12.77;;;11.57;;
9374;SDS011;4727;51.202;6.344;2022-07-23T03:43:01;15.40;;;11.60;;
9374;SDS011;4727;51.202;6.344;2022-07-23T03:45:27;12.57;;;11.37;;
9374;SDS011;4727;51.202;6.344;2022-07-23T03:47:52;12.93;;;11.23;;
9374;SDS011;4727;51.202;6.344;2022-07-23T03:50:18;12.50;;;11.30;;
9374;SDS011;4727;51.202;6.344;2022-07-23T03:52:44;13.13;;;12.00;;
9374;SDS011;4727;51.202;6.344;2022-07-23T03:55:09;12.40;;;11.20;;
9374;SDS011;4727;51.202;6.344;2022-07-23T03:57:35;13.07;;;11.77;;
9374;SDS011;4727;51.202;6.344;2022-07-23T04:00:01;14.87;;;13.50;;
9374;SDS011;4727;51.202;6.344;2022-07-23T04:02:29;15.23;;;13.63;;
9374;SDS011;4727;51.202;6.344;2022-07-23T04:04:55;16.47;;;13.87;;
9374;SDS011;4727;51.202;6.344;2022-07-23T04:07:20;15.13;;;13.63;;
9374;SDS011;4727;51.202;6.344;2022-07-23T04:09:46;16.23;;;14.67;;
9374;SDS011;4727;51.202;6.344;2022-07-23T04:12:12;13.87;;;12.47;;
9374;SDS011;4727;51.202;6.344;2022-07-23T04:14:37;14.30;;;13.10;;
9374;SDS011;4727;51.202;6.344;2022-07-23T04:17:03;13.30;;;12.10;;
9374;SDS011;4727;51.202;6.344;2022-07-23T04:19:29;14.33;;;13.00;;
9374;SDS011;4727;51.202;6.344;2022-07-23T04:21:55;15.03;;;12.23;;
9374;SDS011;4727;51.202;6.344;2022-07-23T04:24:21;14.60;;;13.10;;
9374;SDS011;4727;51.202;6.344;2022-07-23T04:26:46;14.40;;;12.93;;
9374;SDS011;4727;51.202;6.344;2022-07-23T04:29:12;13.87;;;12.47;;
9374;SDS011;4727;51.202;6.344;2022-07-23T04:31:38;13.37;;;12.00;;
9374;SDS011;4727;51.202;6.344;2022-07-23T04:34:03;13.70;;;12.47;;
9374;SDS011;4727;51.202;6.344;2022-07-23T04:36:29;13.83;;;12.57;;
9374;SDS011;4727;51.202;6.344;2022-07-23T04:38:55;13.90;;;12.63;;
9374;SDS011;4727;51.202;6.344;2022-07-23T04:41:21;14.30;;;12.83;;
9374;SDS011;4727;51.202;6.344;2022-07-23T04:43:46;14.00;;;12.70;;
9374;SDS011;4727;51.202;6.344;2022-07-23T04:46:12;15.33;;;13.87;;
9374;SDS011;4727;51.202;6.344;2022-07-23T04:48:38;16.07;;;14.57;;
9374;SDS011;4727;51.202;6.344;2022-07-23T04:51:04;15.57;;;14.23;;
9374;SDS011;4727;51.202;6.344;2022-07-23T04:53:30;15.97;;;14.23;;
9374;SDS011;4727;51.202;6.344;2022-07-23T04:55:56;20.17;;;18.27;;
9374;SDS011;4727;51.202;6.344;2022-07-23T04:58:22;15.77;;;14.17;;
9374;SDS011;4727;51.202;6.344;2022-07-23T05:00:48;17.93;;;16.03;;
9374;SDS011;4727;51.202;6.344;2022-07-23T05:03:13;19.60;;;17.07;;
9374;SDS011;4727;51.202;6.344;2022-07-23T05:05:40;23.43;;;20.60;;
9374;SDS011;4727;51.202;6.344;2022-07-23T05:08:06;15.77;;;14.17;;
9374;SDS011;4727;51.202;6.344;2022-07-23T05:10:31;15.13;;;13.63;;
9374;SDS011;4727;51.202;6.344;2022-07-23T05:12:57;15.13;;;13.63;;
9374;SDS011;4727;51.202;6.344;2022-07-23T05:15:23;14.23;;;12.77;;
9374;SDS011;4727;51.202;6.344;2022-07-23T05:17:48;14.67;;;13.13;;
9374;SDS011;4727;51.202;6.344;2022-07-23T05:20:14;16.70;;;14.63;;
9374;SDS011;4727;51.202;6.344;2022-07-23T05:22:40;17.90;;;14.20;;
9374;SDS011;4727;51.202;6.344;2022-07-23T05:25:06;16.23;;;14.13;;
9374;SDS011;4727;51.202;6.344;2022-07-23T05:27:32;17.73;;;13.73;;
9374;SDS011;4727;51.202;6.344;2022-07-23T05:29:57;14.40;;;13.10;;
9374;SDS011;4727;51.202;6.344;2022-07-23T05:32:23;15.93;;;13.50;;
9374;SDS011;4727;51.202;6.344;2022-07-23T05:34:49;15.80;;;13.30;;
9374;SDS011;4727;51.202;6.344;2022-07-23T05:37:15;13.33;;;11.97;;
9374;SDS011;4727;51.202;6.344;2022-07-23T05:39:40;14.27;;;12.87;;
9374;SDS011;4727;51.202;6.344;2022-07-23T05:42:06;15.17;;;13.23;;
9374;SDS011;4727;51.202;6.344;2022-07-23T05:44:32;15.47;;;12.87;;
9374;SDS011;4727;51.202;6.344;2022-07-23T05:46:58;14.70;;;12.03;;
9374;SDS011;4727;51.202;6.344;2022-07-23T05:49:24;14.00;;;11.40;;
9374;SDS011;4727;51.202;6.344;2022-07-23T05:51:51;12.70;;;11.40;;
9374;SDS011;4727;51.202;6.344;2022-07-23T05:54:16;13.77;;;12.47;;
9374;SDS011;4727;51.202;6.344;2022-07-23T05:56:42;14.20;;;12.90;;
9374;SDS011;4727;51.202;6.344;2022-07-23T05:59:08;14.73;;;13.20;;
9374;SDS011;4727;51.202;6.344;2022-07-23T06:01:33;14.40;;;13.00;;
9374;SDS011;4727;51.202;6.344;2022-07-23T06:03:59;14.13;;;12.77;;
9374;SDS011;4727;51.202;6.344;2022-07-23T06:06:25;16.17;;;13.57;;
9374;SDS011;4727;51.202;6.344;2022-07-23T06:08:50;14.80;;;13.40;;
9374;SDS011;4727;51.202;6.344;2022-07-23T06:11:16;14.30;;;12.80;;
9374;SDS011;4727;51.202;6.344;2022-07-23T06:13:41;14.30;;;12.80;;
9374;SDS011;4727;51.202;6.344;2022-07-23T06:16:07;14.63;;;13.03;;
9374;SDS011;4727;51.202;6.344;2022-07-23T06:18:33;15.83;;;14.27;;
9374;SDS011;4727;51.202;6.344;2022-07-23T06:20:58;15.13;;;13.67;;
9374;SDS011;4727;51.202;6.344;2022-07-23T06:23:24;14.13;;;12.87;;
9374;SDS011;4727;51.202;6.344;2022-07-23T06:25:49;16.53;;;15.03;;
9374;SDS011;4727;51.202;6.344;2022-07-23T06:28:15;16.77;;;14.83;;
9374;SDS011;4727;51.202;6.344;2022-07-23T06:30:40;15.63;;;14.13;;
9374;SDS011;4727;51.202;6.344;2022-07-23T06:33:06;16.77;;;14.90;;
9374;SDS011;4727;51.202;6.344;2022-07-23T06:35:32;15.53;;;13.97;;
9374;SDS011;4727;51.202;6.344;2022-07-23T06:37:58;16.90;;;15.13;;
9374;SDS011;4727;51.202;6.344;2022-07-23T06:40:24;16.73;;;15.13;;
9374;SDS011;4727;51.202;6.344;2022-07-23T06:42:50;16.13;;;14.53;;
9374;SDS011;4727;51.202;6.344;2022-07-23T06:45:16;16.70;;;14.77;;
9374;SDS011;4727;51.202;6.344;2022-07-23T06:47:42;16.57;;;14.90;;
9374;SDS011;4727;51.202;6.344;2022-07-23T06:50:07;16.10;;;14.43;;
9374;SDS011;4727;51.202;6.344;2022-07-23T06:52:33;16.40;;;14.90;;
9374;SDS011;4727;51.202;6.344;2022-07-23T06:54:59;17.77;;;15.00;;
9374;SDS011;4727;51.202;6.344;2022-07-23T06:57:24;17.97;;;15.93;;
9374;SDS011;4727;51.202;6.344;2022-07-23T06:59:50;16.57;;;15.00;;
9374;SDS011;4727;51.202;6.344;2022-07-23T07:02:17;16.10;;;14.50;;
9374;SDS011;4727;51.202;6.344;2022-07-23T07:04:42;16.67;;;14.90;;
9374;SDS011;4727;51.202;6.344;2022-07-23T07:07:08;16.03;;;14.33;;
9374;SDS011;4727;51.202;6.344;2022-07-23T07:09:33;15.97;;;13.77;;
9374;SDS011;4727;51.202;6.344;2022-07-23T07:11:59;16.03;;;14.53;;
9374;SDS011;4727;51.202;6.344;2022-07-23T07:14:25;18.83;;;15.73;;
9374;SDS011;4727;51.202;6.344;2022-07-23T07:16:51;17.43;;;15.67;;
9374;SDS011;4727;51.202;6.344;2022-07-23T07:19:16;18.83;;;16.57;;
9374;SDS011;4727;51.202;6.344;2022-07-23T07:21:42;17.20;;;15.50;;
9374;SDS011;4727;51.202;6.344;2022-07-23T07:24:07;17.93;;;15.73;;
9374;SDS011;4727;51.202;6.344;2022-07-23T07:26:33;18.33;;;15.23;;
9374;SDS011;4727;51.202;6.344;2022-07-23T07:28:58;16.47;;;14.87;;
9374;SDS011;4727;51.202;6.344;2022-07-23T07:31:24;17.57;;;15.23;;
9374;SDS011;4727;51.202;6.344;2022-07-23T07:33:50;16.63;;;14.90;;
9374;SDS011;4727;51.202;6.344;2022-07-23T07:36:15;16.73;;;15.00;;
9374;SDS011;4727;51.202;6.344;2022-07-23T07:38:41;16.57;;;14.23;;
9374;SDS011;4727;51.202;6.344;2022-07-23T07:41:06;15.43;;;13.73;;
9374;SDS011;4727;51.202;6.344;2022-07-23T07:43:35;17.20;;;12.97;;
9374;SDS011;4727;51.202;6.344;2022-07-23T07:46:00;15.40;;;13.73;;
9374;SDS011;4727;51.202;6.344;2022-07-23T07:48:26;15.60;;;13.97;;
9374;SDS011;4727;51.202;6.344;2022-07-23T07:50:52;15.57;;;14.03;;
9374;SDS011;4727;51.202;6.344;2022-07-23T07:53:18;14.60;;;12.33;;
9374;SDS011;4727;51.202;6.344;2022-07-23T07:55:44;15.33;;;12.57;;
9374;SDS011;4727;51.202;6.344;2022-07-23T07:58:09;11.67;;;10.53;;
9374;SDS011;4727;51.202;6.344;2022-07-23T08:00:35;15.00;;;11.93;;
9374;SDS011;4727;51.202;6.344;2022-07-23T08:03:00;13.57;;;11.30;;
9374;SDS011;4727;51.202;6.344;2022-07-23T08:05:27;12.40;;;11.10;;
9374;SDS011;4727;51.202;6.344;2022-07-23T08:07:58;10.87;;;9.63;;
9374;SDS011;4727;51.202;6.344;2022-07-23T08:10:24;13.53;;;11.73;;
9374;SDS011;4727;51.202;6.344;2022-07-23T08:12:52;9.93;;;9.03;;
9374;SDS011;4727;51.202;6.344;2022-07-23T08:15:26;12.10;;;9.60;;
9374;SDS011;4727;51.202;6.344;2022-07-23T08:17:54;17.10;;;14.27;;
9374;SDS011;4727;51.202;6.344;2022-07-23T08:20:21;11.00;;;9.93;;
9374;SDS011;4727;51.202;6.344;2022-07-23T08:22:55;10.83;;;9.73;;
9374;SDS011;4727;51.202;6.344;2022-07-23T08:25:27;9.40;;;8.10;;
9374;SDS011;4727;51.202;6.344;2022-07-23T08:28:03;8.53;;;7.63;;
9374;SDS011;4727;51.202;6.344;2022-07-23T08:30:31;9.20;;;8.23;;
9374;SDS011;4727;51.202;6.344;2022-07-23T08:32:58;9.93;;;9.07;;
9374;SDS011;4727;51.202;6.344;2022-07-23T08:35:32;9.13;;;8.23;;
9374;SDS011;4727;51.202;6.344;2022-07-23T08:38:00;10.07;;;9.07;;
9374;SDS011;4727;51.202;6.344;2022-07-23T08:40:29;8.47;;;7.77;;
9374;SDS011;4727;51.202;6.344;2022-07-23T08:42:56;7.57;;;6.83;;
9374;SDS011;4727;51.202;6.344;2022-07-23T08:45:22;7.30;;;6.60;;
9374;SDS011;4727;51.202;6.344;2022-07-23T08:47:50;8.20;;;7.43;;
9374;SDS011;4727;51.202;6.344;2022-07-23T08:50:16;8.00;;;7.03;;
9374;SDS011;4727;51.202;6.344;2022-07-23T08:52:43;7.77;;;7.07;;
9374;SDS011;4727;51.202;6.344;2022-07-23T08:55:08;7.80;;;7.10;;
9374;SDS011;4727;51.202;6.344;2022-07-23T08:57:34;7.60;;;6.87;;
9374;SDS011;4727;51.202;6.344;2022-07-23T09:00:00;9.80;;;7.70;;
9374;SDS011;4727;51.202;6.344;2022-07-23T09:02:26;8.10;;;7.30;;
9374;SDS011;4727;51.202;6.344;2022-07-23T09:04:52;7.67;;;6.93;;
9374;SDS011;4727;51.202;6.344;2022-07-23T09:07:17;9.97;;;6.97;;
9374;SDS011;4727;51.202;6.344;2022-07-23T09:09:43;7.73;;;7.00;;
9374;SDS011;4727;51.202;6.344;2022-07-23T09:12:09;8.20;;;7.00;;
9374;SDS011;4727;51.202;6.344;2022-07-23T09:14:39;8.60;;;7.70;;
9374;SDS011;4727;51.202;6.344;2022-07-23T09:17:13;7.50;;;6.80;;
9374;SDS011;4727;51.202;6.344;2022-07-23T09:19:41;7.23;;;6.50;;
9374;SDS011;4727;51.202;6.344;2022-07-23T09:22:21;7.00;;;6.40;;
9374;SDS011;4727;51.202;6.344;2022-07-23T09:25:10;7.30;;;6.27;;
9374;SDS011;4727;51.202;6.344;2022-07-23T09:27:46;7.53;;;6.93;;
9374;SDS011;4727;51.202;6.344;2022-07-23T09:30:14;8.80;;;6.40;;
9374;SDS011;4727;51.202;6.344;2022-07-23T09:32:40;7.73;;;7.07;;
9374;SDS011;4727;51.202;6.344;2022-07-23T09:35:06;7.37;;;6.50;;
9374;SDS011;4727;51.202;6.344;2022-07-23T09:37:32;6.40;;;5.80;;
9374;SDS011;4727;51.202;6.344;2022-07-23T09:40:05;7.30;;;6.70;;
9374;SDS011;4727;51.202;6.344;2022-07-23T09:42:38;6.53;;;5.93;;
9374;SDS011;4727;51.202;6.344;2022-07-23T09:45:03;6.43;;;5.83;;
9374;SDS011;4727;51.202;6.344;2022-07-23T09:47:37;8.37;;;6.87;;
9374;SDS011;4727;51.202;6.344;2022-07-23T09:50:06;6.73;;;6.23;;
9374;SDS011;4727;51.202;6.344;2022-07-23T09:52:44;6.33;;;5.70;;
9374;SDS011;4727;51.202;6.344;2022-07-23T09:55:13;7.43;;;6.83;;
9374;SDS011;4727;51.202;6.344;2022-07-23T09:57:40;5.87;;;5.30;;
9374;SDS011;4727;51.202;6.344;2022-07-23T10:00:09;4.97;;;4.50;;
9374;SDS011;4727;51.202;6.344;2022-07-23T10:02:36;5.87;;;5.37;;
9374;SDS011;4727;51.202;6.344;2022-07-23T10:05:03;5.70;;;5.20;;
9374;SDS011;4727;51.202;6.344;2022-07-23T10:07:33;7.17;;;6.47;;
9374;SDS011;4727;51.202;6.344;2022-07-23T10:10:02;6.97;;;6.27;;
9374;SDS011;4727;51.202;6.344;2022-07-23T10:12:30;5.77;;;5.30;;
9374;SDS011;4727;51.202;6.344;2022-07-23T10:15:02;5.77;;;5.27;;
9374;SDS011;4727;51.202;6.344;2022-07-23T10:17:31;6.90;;;6.30;;
9374;SDS011;4727;51.202;6.344;2022-07-23T10:19:57;4.97;;;4.57;;
9374;SDS011;4727;51.202;6.344;2022-07-23T10:22:23;4.50;;;4.10;;
9374;SDS011;4727;51.202;6.344;2022-07-23T10:31:23;6.50;;;6.00;;
9374;SDS011;4727;51.202;6.344;2022-07-23T10:33:59;5.97;;;5.47;;
9374;SDS011;4727;51.202;6.344;2022-07-23T10:36:40;5.90;;;5.40;;
9374;SDS011;4727;51.202;6.344;2022-07-23T10:39:16;6.17;;;5.67;;
9374;SDS011;4727;51.202;6.344;2022-07-23T10:41:47;6.50;;;5.90;;
9374;SDS011;4727;51.202;6.344;2022-07-23T10:49:44;5.50;;;5.00;;
9374;SDS011;4727;51.202;6.344;2022-07-23T10:52:16;5.70;;;5.20;;
9374;SDS011;4727;51.202;6.344;2022-07-23T10:54:44;5.63;;;5.23;;
9374;SDS011;4727;51.202;6.344;2022-07-23T10:57:11;6.43;;;5.93;;
9374;SDS011;4727;51.202;6.344;2022-07-23T11:02:25;5.03;;;4.63;;
9374;SDS011;4727;51.202;6.344;2022-07-23T11:04:54;4.67;;;4.20;;
9374;SDS011;4727;51.202;6.344;2022-07-23T11:07:24;4.60;;;4.30;;
9374;SDS011;4727;51.202;6.344;2022-07-23T11:09:49;4.37;;;4.07;;
9374;SDS011;4727;51.202;6.344;2022-07-23T11:15:08;3.53;;;3.33;;
9374;SDS011;4727;51.202;6.344;2022-07-23T11:17:36;3.83;;;3.50;;
9374;SDS011;4727;51.202;6.344;2022-07-23T11:22:38;4.83;;;3.63;;
9374;SDS011;4727;51.202;6.344;2022-07-23T11:25:05;3.53;;;2.80;;
9374;SDS011;4727;51.202;6.344;2022-07-23T11:27:38;3.60;;;3.30;;
9374;SDS011;4727;51.202;6.344;2022-07-23T11:30:08;4.10;;;3.70;;
9374;SDS011;4727;51.202;6.344;2022-07-23T11:32:36;4.80;;;3.40;;
9374;SDS011;4727;51.202;6.344;2022-07-23T11:35:23;4.00;;;3.70;;
9374;SDS011;4727;51.202;6.344;2022-07-23T11:37:49;4.30;;;3.20;;
9374;SDS011;4727;51.202;6.344;2022-07-23T11:40:18;4.00;;;3.70;;
9374;SDS011;4727;51.202;6.344;2022-07-23T11:43:27;4.30;;;3.90;;
9374;SDS011;4727;51.202;6.344;2022-07-23T11:45:35;3.73;;;3.47;;
9374;SDS011;4727;51.202;6.344;2022-07-23T11:48:02;4.13;;;3.70;;
9374;SDS011;4727;51.202;6.344;2022-07-23T11:50:29;3.40;;;3.20;;
9374;SDS011;4727;51.202;6.344;2022-07-23T11:52:55;3.53;;;3.33;;
9374;SDS011;4727;51.202;6.344;2022-07-23T11:55:21;3.50;;;3.20;;
9374;SDS011;4727;51.202;6.344;2022-07-23T11:57:47;3.10;;;2.90;;
9374;SDS011;4727;51.202;6.344;2022-07-23T12:00:16;4.10;;;3.77;;
9374;SDS011;4727;51.202;6.344;2022-07-23T12:02:44;3.90;;;3.53;;
9374;SDS011;4727;51.202;6.344;2022-07-23T12:05:14;4.43;;;3.60;;
9374;SDS011;4727;51.202;6.344;2022-07-23T12:07:49;4.10;;;3.70;;
9374;SDS011;4727;51.202;6.344;2022-07-23T12:10:20;3.40;;;3.17;;
9374;SDS011;4727;51.202;6.344;2022-07-23T12:12:55;3.95;;;3.15;;
9374;SDS011;4727;51.202;6.344;2022-07-23T12:15:29;4.03;;;3.30;;
9374;SDS011;4727;51.202;6.344;2022-07-23T12:18:04;4.00;;;3.53;;
9374;SDS011;4727;51.202;6.344;2022-07-23T12:20:32;3.58;;;3.38;;
9374;SDS011;4727;51.202;6.344;2022-07-23T12:23:01;4.23;;;3.83;;
9374;SDS011;4727;51.202;6.344;2022-07-23T12:25:29;3.73;;;3.53;;
9374;SDS011;4727;51.202;6.344;2022-07-23T12:28:03;3.80;;;3.38;;
9374;SDS011;4727;51.202;6.344;2022-07-23T12:30:41;4.65;;;3.75;;
9374;SDS011;4727;51.202;6.344;2022-07-23T12:33:12;3.97;;;3.65;;
9374;SDS011;4727;51.202;6.344;2022-07-23T12:35:55;4.03;;;3.72;;
9374;SDS011;4727;51.202;6.344;2022-07-23T12:38:24;3.42;;;3.17;;
9374;SDS011;4727;51.202;6.344;2022-07-23T12:40:52;3.78;;;3.30;;
9374;SDS011;4727;51.202;6.344;2022-07-23T12:43:26;3.60;;;3.40;;
9374;SDS011;4727;51.202;6.344;2022-07-23T12:46:02;3.35;;;3.08;;
9374;SDS011;4727;51.202;6.344;2022-07-23T12:48:54;3.47;;;3.00;;
9374;SDS011;4727;51.202;6.344;2022-07-23T12:51:21;3.25;;;2.95;;
9374;SDS011;4727;51.202;6.344;2022-07-23T12:53:56;3.08;;;2.88;;
9374;SDS011;4727;51.202;6.344;2022-07-23T12:56:30;3.35;;;3.05;;
9374;SDS011;4727;51.202;6.344;2022-07-23T13:01:29;3.40;;;3.20;;
9374;SDS011;4727;51.202;6.344;2022-07-23T13:04:00;3.30;;;3.10;;
9374;SDS011;4727;51.202;6.344;2022-07-23T13:06:38;3.45;;;3.10;;
9374;SDS011;4727;51.202;6.344;2022-07-23T13:09:05;4.20;;;3.60;;
9374;SDS011;4727;51.202;6.344;2022-07-23T13:11:31;3.88;;;3.58;;
9374;SDS011;4727;51.202;6.344;2022-07-23T13:13:57;3.38;;;3.05;;
9374;SDS011;4727;51.202;6.344;2022-07-23T13:16:25;3.65;;;3.35;;
9374;SDS011;4727;51.202;6.344;2022-07-23T13:18:55;3.45;;;3.08;;
9374;SDS011;4727;51.202;6.344;2022-07-23T13:21:21;3.05;;;2.80;;
9374;SDS011;4727;51.202;6.344;2022-07-23T13:23:47;3.75;;;3.05;;
9374;SDS011;4727;51.202;6.344;2022-07-23T13:26:13;4.90;;;3.53;;
9374;SDS011;4727;51.202;6.344;2022-07-23T13:28:39;3.88;;;3.58;;
9374;SDS011;4727;51.202;6.344;2022-07-23T13:31:04;3.65;;;3.35;;
9374;SDS011;4727;51.202;6.344;2022-07-23T13:33:30;3.88;;;3.67;;
9374;SDS011;4727;51.202;6.344;2022-07-23T13:35:56;5.10;;;3.63;;
9374;SDS011;4727;51.202;6.344;2022-07-23T13:38:21;4.28;;;3.95;;
9374;SDS011;4727;51.202;6.344;2022-07-23T13:40:48;4.53;;;3.10;;
9374;SDS011;4727;51.202;6.344;2022-07-23T13:43:18;3.60;;;3.30;;
9374;SDS011;4727;51.202;6.344;2022-07-23T13:45:44;3.38;;;3.08;;
9374;SDS011;4727;51.202;6.344;2022-07-23T13:48:11;3.67;;;3.40;;
9374;SDS011;4727;51.202;6.344;2022-07-23T13:50:37;3.60;;;3.30;;
9374;SDS011;4727;51.202;6.344;2022-07-23T13:53:05;3.53;;;3.33;;
9374;SDS011;4727;51.202;6.344;2022-07-23T13:55:39;4.15;;;3.85;;
9374;SDS011;4727;51.202;6.344;2022-07-23T13:58:06;3.88;;;3.40;;
9374;SDS011;4727;51.202;6.344;2022-07-23T14:00:33;3.45;;;3.25;;
9374;SDS011;4727;51.202;6.344;2022-07-23T14:03:00;3.50;;;3.20;;
9374;SDS011;4727;51.202;6.344;2022-07-23T14:05:26;3.50;;;3.20;;
9374;SDS011;4727;51.202;6.344;2022-07-23T14:07:52;4.07;;;3.75;;
9374;SDS011;4727;51.202;6.344;2022-07-23T14:10:19;3.80;;;3.40;;
9374;SDS011;4727;51.202;6.344;2022-07-23T14:12:46;3.40;;;3.10;;
9374;SDS011;4727;51.202;6.344;2022-07-23T14:15:13;3.10;;;2.90;;
9374;SDS011;4727;51.202;6.344;2022-07-23T14:17:41;4.15;;;3.50;;
9374;SDS011;4727;51.202;6.344;2022-07-23T14:20:09;3.13;;;2.92;;
9374;SDS011;4727;51.202;6.344;2022-07-23T14:22:36;3.70;;;3.40;;
9374;SDS011;4727;51.202;6.344;2022-07-23T14:25:02;3.95;;;3.38;;
9374;SDS011;4727;51.202;6.344;2022-07-23T14:27:29;3.95;;;3.58;;
9374;SDS011;4727;51.202;6.344;2022-07-23T14:29:55;4.15;;;3.75;;
9374;SDS011;4727;51.202;6.344;2022-07-23T14:32:21;4.00;;;3.70;;
9374;SDS011;4727;51.202;6.344;2022-07-23T14:34:46;4.10;;;3.67;;
9374;SDS011;4727;51.202;6.344;2022-07-23T14:37:13;4.00;;;3.70;;
9374;SDS011;4727;51.202;6.344;2022-07-23T14:39:39;3.90;;;3.58;;
9374;SDS011;4727;51.202;6.344;2022-07-23T14:42:06;3.55;;;3.25;;
9374;SDS011;4727;51.202;6.344;2022-07-23T14:44:32;4.30;;;3.10;;
9374;SDS011;4727;51.202;6.344;2022-07-23T14:46:58;3.63;;;3.35;;
9374;SDS011;4727;51.202;6.344;2022-07-23T14:49:25;3.72;;;3.38;;
9374;SDS011;4727;51.202;6.344;2022-07-23T14:51:51;3.30;;;3.00;;
9374;SDS011;4727;51.202;6.344;2022-07-23T14:54:16;4.30;;;3.88;;
9374;SDS011;4727;51.202;6.344;2022-07-23T14:56:42;3.75;;;3.45;;
9374;SDS011;4727;51.202;6.344;2022-07-23T14:59:08;4.05;;;3.65;;
9374;SDS011;4727;51.202;6.344;2022-07-23T15:01:34;4.20;;;3.80;;
9374;SDS011;4727;51.202;6.344;2022-07-23T15:04:01;3.20;;;3.00;;
9374;SDS011;4727;51.202;6.344;2022-07-23T15:06:27;3.70;;;3.40;;
9374;SDS011;4727;51.202;6.344;2022-07-23T15:08:53;3.40;;;3.20;;
9374;SDS011;4727;51.202;6.344;2022-07-23T15:11:18;7.43;;;6.70;;
9374;SDS011;4727;51.202;6.344;2022-07-23T15:13:44;5.97;;;3.50;;
9374;SDS011;4727;51.202;6.344;2022-07-23T15:16:10;4.10;;;3.80;;
9374;SDS011;4727;51.202;6.344;2022-07-23T15:18:36;4.00;;;3.70;;
9374;SDS011;4727;51.202;6.344;2022-07-23T15:21:02;3.50;;;3.20;;
9374;SDS011;4727;51.202;6.344;2022-07-23T15:23:28;3.30;;;3.15;;